Accueil
METAR-TAF:

METAR-TAF

Aéroports :

Aéroport de Burgos

Burgos, Espagne

latitude: 42-22N, longitude: 003-38W, altitude: 894 m

Observation

Le bulletin a été fait il y a 34 minutes, à 22:30 UTC
Vent 10 kt de nord-est, variant entre nord/nord-est et est
Température 11°C
Humidité 82%
Pression 1025 hPa
Visibilité 10 km ou plus

METAR: LEBG 172230Z AUTO 05010KT 020V080 9999 NCD 11/08 Q1025

Heure: 01:04 (23:04 UTC)

Prévision

Le bulletin a été fait il y a 6 heures et 4 minutes, à 17:00 UTC
Prévision valable du 17 à 18 UTC au 18 à 03 UTC
Vent 15 kt de nord-est
Visibilité 10 km ou plus
Nuages épars à une hauteur de 2500 ft
Probabilité 40% :
Temporairement
du 17 à 18 UTC au 18 à 03 UTC
Nuages fragmentés à une hauteur de 1000 ft
Temporairement
du 17 à 18 UTC au 17 à 22 UTC
Vent 15 kt de nord/nord-est avec des rafales jusqu'à 25 kt

TAF: LEBG 171700Z 1718/1803 04015KT 9999 SCT025 PROB40 TEMPO 1718/1803 BKN010 TEMPO 1718/1722 03015G25KT

Observations et prévisions météorologiques de plus de 4000 aéroports (messages METAR et TAF).

Les stations disponibles sont représentées par des disques jaunes et rouges sur la carte.

Passer la souris dessus pour voir le nom de la station.

Cliquer dessus pour voir les observations et prévisions météorologiques.

Pour changer de carte: cliquez sur les boutons verts avec une croix noire pour zoomer, sur le bouton vert avec un tiret pour effectuer un zoom arrière, ou sur les flèches vertes pour les cartes adjacentes.


METAR-TAF: